หน้าหลัก
METAR-TAF:

METAR-TAF

ท่าอากาศยาน :

Sälen Trysil, สวีเดน

ละติจูด: 61-09-32N, ลองจิจูด: 12-50-24E, ความสูง: 490 ม.

การสังเกตสภาพอากาศปัจจุบัน

รายงานได้ทำขึ้นเมื่อ 46 นาทีที่แล้ว ณ เวลา 00:50 UTC
ลม 6 นอตจากเหนือ
อุณหภูมิ 11°C
ความชื้น 82%
ความกดอากาศ 1017 hPa
ทัศนวิสัย 10 กม. หรือมากกว่า

METAR: ESKS 200050Z AUTO 01006KT 9999 NCD 11/08 Q1017

เวลา: 03:36 (01:36 UTC)


TAF: หายไป

สังเกตการณ์สภาพอากาศและพยากรณ์อากาศของสนามบินมากกว่า 4000 แห่ง (รายงาน METAR และ TAF).

สถานีที่ดูได้จะแสดงไว้ด้วยจุดสีเหลืองและสีแดงบนแผนที่.

เลื่อนเมาส์ไปเหนือจุดเพื่อดูชื่อสถานี.

แล้วคลิกเพื่อดูสังเกตการณ์และการพยากรณ์สภาพอากาศ.

ในการเปลี่ยนแผนที่: คลิกที่ปุ่มสีเขียวที่มีกากบาทสีดำเพื่อซูมเข้า; ที่ปุ่มสีเขียวที่มีขีดเพื่อซูมออก; หรือที่ลูกศรสีเขียวเพื่อไปยังแผนที่ที่อยู่ติดกัน.


METAR-TAF: